createdAt,value
2022-08-22T00:00:11.549Z,40.71
2022-08-22T00:02:39.912Z,40.25
2022-08-22T00:02:41.977Z,39.82
2022-08-22T00:02:45.270Z,41.00
2022-08-22T00:02:56.593Z,39.21
2022-08-22T00:02:57.619Z,40.55
2022-08-22T00:03:00.886Z,39.14
2022-08-22T00:05:06.373Z,40.45
2022-08-22T00:07:32.766Z,41.65
2022-08-22T00:09:59.135Z,40.98
2022-08-22T00:12:25.557Z,41.02
2022-08-22T00:14:51.978Z,41.35
2022-08-22T00:17:18.379Z,40.73
2022-08-22T00:19:44.775Z,41.65
2022-08-22T00:22:11.166Z,41.63
2022-08-22T00:24:37.602Z,40.80
2022-08-22T00:27:03.994Z,41.47
2022-08-22T00:29:30.393Z,41.89
2022-08-22T00:31:59.268Z,42.49
2022-08-22T00:34:26.498Z,42.28
2022-08-22T00:36:52.963Z,42.21
2022-08-22T00:39:19.378Z,41.98
2022-08-22T00:41:45.875Z,42.23
2022-08-22T00:44:12.288Z,42.70
2022-08-22T00:46:38.699Z,42.49
2022-08-22T00:49:05.141Z,42.08
2022-08-22T00:51:31.550Z,41.69
2022-08-22T00:53:57.959Z,42.31
2022-08-22T00:56:24.351Z,40.72
2022-08-22T00:58:50.745Z,41.28
2022-08-22T01:01:17.194Z,42.51
2022-08-22T01:03:45.954Z,41.18
2022-08-22T01:06:12.344Z,41.24
2022-08-22T01:08:38.787Z,40.54
2022-08-22T01:11:05.206Z,42.08
2022-08-22T01:13:31.611Z,42.21
2022-08-22T01:15:58.034Z,41.88
2022-08-22T01:18:24.506Z,41.25
2022-08-22T01:20:50.899Z,41.67
2022-08-22T01:23:17.309Z,41.52
2022-08-22T01:25:43.697Z,41.20
2022-08-22T01:28:10.111Z,41.37
2022-08-22T01:30:37.497Z,41.58
2022-08-22T01:33:03.891Z,42.54
2022-08-22T01:35:30.304Z,42.18
2022-08-22T01:37:56.916Z,41.95
2022-08-22T01:40:23.812Z,41.57
2022-08-22T01:42:50.259Z,41.59
2022-08-22T01:45:16.649Z,41.99
2022-08-22T01:47:43.069Z,42.17
2022-08-22T01:50:09.474Z,42.48
2022-08-22T01:52:35.886Z,42.71
2022-08-22T01:55:02.312Z,41.72
2022-08-22T01:57:28.722Z,42.30
2022-08-22T01:59:55.129Z,42.80
2022-08-22T02:02:23.928Z,42.80
2022-08-22T02:04:50.336Z,43.17
2022-08-22T02:07:17.843Z,43.10
2022-08-22T02:09:44.339Z,43.17
2022-08-22T02:12:21.384Z,42.70
2022-08-22T02:14:48.490Z,43.77
2022-08-22T02:17:14.933Z,43.14
2022-08-22T02:19:41.326Z,42.83
2022-08-22T02:22:07.716Z,43.16
2022-08-22T02:24:34.127Z,42.93
2022-08-22T02:27:00.531Z,43.14
2022-08-22T02:29:26.924Z,43.70
2022-08-22T02:31:53.329Z,42.84
2022-08-22T02:34:21.440Z,43.00
2022-08-22T02:36:47.857Z,41.80
2022-08-22T02:39:14.279Z,42.18
2022-08-22T02:41:40.667Z,42.39
2022-08-22T02:44:07.070Z,42.66
2022-08-22T02:46:33.723Z,42.00
2022-08-22T02:49:00.121Z,42.11
2022-08-22T02:51:26.511Z,42.75
2022-08-22T02:53:52.918Z,42.19
2022-08-22T02:56:19.367Z,42.80
2022-08-22T02:58:45.808Z,43.16
2022-08-22T03:01:12.268Z,43.60
2022-08-22T03:03:41.838Z,44.01
2022-08-22T03:06:08.242Z,43.62
2022-08-22T03:08:34.652Z,43.85
2022-08-22T03:11:02.028Z,43.79
2022-08-22T03:13:28.433Z,44.14
2022-08-22T03:15:54.864Z,44.29
2022-08-22T03:18:21.292Z,43.98
2022-08-22T03:20:47.893Z,44.45
2022-08-22T03:23:14.310Z,44.13
2022-08-22T03:25:40.737Z,44.27
2022-08-22T03:28:07.125Z,44.83
2022-08-22T03:30:33.614Z,44.61
2022-08-22T03:32:59.992Z,44.39
2022-08-22T03:35:26.377Z,44.50
2022-08-22T03:37:52.860Z,44.41
2022-08-22T03:40:19.355Z,44.69
2022-08-22T03:42:45.805Z,44.45
2022-08-22T03:45:12.220Z,43.85
2022-08-22T03:47:38.621Z,43.76
2022-08-22T03:50:05.009Z,44.13
2022-08-22T03:52:31.503Z,43.93
2022-08-22T03:54:57.883Z,44.71
2022-08-22T03:57:24.296Z,45.01
2022-08-22T03:59:50.703Z,44.58
2022-08-22T04:02:41.998Z,44.84
2022-08-22T04:05:03.754Z,45.24
2022-08-22T04:07:32.382Z,44.50
2022-08-22T04:09:59.865Z,43.53
2022-08-22T04:12:26.366Z,44.87
2022-08-22T04:14:52.768Z,44.94
2022-08-22T04:17:19.174Z,44.55
2022-08-22T04:19:45.570Z,45.41
2022-08-22T04:22:11.966Z,45.11
2022-08-22T04:24:38.382Z,45.20
2022-08-22T04:27:04.773Z,44.64
2022-08-22T04:29:31.178Z,45.40
2022-08-22T04:31:57.595Z,45.28
2022-08-22T04:34:23.970Z,44.33
2022-08-22T04:36:50.384Z,44.04
2022-08-22T04:39:16.786Z,45.19
2022-08-22T04:41:43.199Z,45.02
2022-08-22T04:44:09.589Z,45.35
2022-08-22T04:46:37.459Z,44.75
2022-08-22T04:49:03.899Z,44.57
2022-08-22T04:51:30.313Z,44.16
2022-08-22T04:53:58.555Z,43.94
2022-08-22T04:56:24.942Z,44.75
2022-08-22T04:58:51.348Z,44.86
2022-08-22T05:01:17.885Z,44.26
2022-08-22T05:03:45.052Z,43.97
2022-08-22T05:06:11.498Z,44.48
2022-08-22T05:08:37.902Z,44.82
2022-08-22T05:11:06.014Z,44.84
2022-08-22T05:13:32.442Z,45.42
2022-08-22T05:15:58.839Z,45.07
2022-08-22T05:18:29.480Z,44.68
2022-08-22T05:20:56.350Z,44.71
2022-08-22T05:23:22.772Z,45.24
2022-08-22T05:25:49.172Z,44.32
2022-08-22T05:28:16.121Z,44.09
2022-08-22T05:30:42.542Z,45.07
2022-08-22T05:33:08.982Z,44.19
2022-08-22T05:35:35.400Z,43.26
2022-08-22T05:38:01.784Z,43.30
2022-08-22T05:40:28.168Z,43.62
2022-08-22T05:42:55.582Z,44.60
2022-08-22T05:45:21.996Z,45.20
2022-08-22T05:47:48.437Z,43.58
2022-08-22T05:50:14.922Z,43.98
2022-08-22T05:52:41.292Z,44.90
2022-08-22T05:55:07.670Z,45.93
2022-08-22T05:57:34.138Z,45.69
2022-08-22T06:00:00.537Z,45.92
2022-08-22T06:02:26.935Z,45.62
2022-08-22T06:04:53.552Z,44.79
2022-08-22T06:07:20.718Z,44.54
2022-08-22T06:09:49.322Z,44.63
2022-08-22T06:12:21.951Z,45.23
2022-08-22T06:14:49.326Z,45.50
2022-08-22T06:17:15.704Z,45.13
2022-08-22T06:19:42.116Z,45.87
2022-08-22T06:22:08.526Z,43.20
2022-08-22T06:24:34.921Z,43.83
2022-08-22T06:27:01.332Z,45.05
2022-08-22T06:29:27.728Z,45.83
2022-08-22T06:31:54.333Z,46.43
2022-08-22T06:34:20.855Z,46.22
2022-08-22T06:36:47.309Z,45.46
2022-08-22T06:39:15.101Z,46.93
2022-08-22T06:41:41.577Z,48.95
2022-08-22T06:44:08.067Z,48.96
2022-08-22T06:46:34.459Z,49.73
2022-08-22T06:49:00.870Z,52.10
2022-08-22T06:51:27.278Z,52.65
2022-08-22T06:53:53.677Z,51.84
2022-08-22T06:56:20.065Z,53.01
2022-08-22T06:58:46.511Z,52.00
2022-08-22T07:01:14.005Z,51.79
2022-08-22T07:03:40.400Z,51.78
2022-08-22T07:06:06.815Z,51.38
2022-08-22T07:08:38.503Z,50.20
2022-08-22T07:11:05.493Z,49.45
2022-08-22T07:13:32.471Z,48.82
2022-08-22T07:15:58.958Z,48.63
2022-08-22T07:18:25.340Z,49.08
2022-08-22T07:20:55.000Z,49.24
2022-08-22T07:23:21.656Z,48.52
2022-08-22T07:25:48.126Z,48.48
2022-08-22T07:28:15.913Z,48.42
2022-08-22T07:30:42.703Z,48.88
2022-08-22T07:33:26.047Z,48.45
2022-08-22T07:35:53.875Z,48.00
2022-08-22T07:38:20.312Z,47.69
2022-08-22T07:40:46.826Z,47.06
2022-08-22T07:43:13.297Z,46.91
2022-08-22T07:45:39.737Z,46.22
2022-08-22T07:48:06.148Z,46.53
2022-08-22T07:50:32.543Z,46.40
2022-08-22T07:52:58.940Z,45.58
2022-08-22T07:55:25.342Z,45.46
2022-08-22T07:57:51.726Z,45.32
2022-08-22T08:00:18.122Z,45.37
2022-08-22T08:02:44.550Z,45.30
2022-08-22T08:05:10.945Z,45.84
2022-08-22T08:07:37.336Z,45.75
2022-08-22T08:10:03.773Z,45.30
2022-08-22T08:12:30.199Z,44.70
2022-08-22T08:14:56.605Z,44.71
2022-08-22T08:17:23.008Z,45.23
2022-08-22T08:19:49.406Z,44.52
2022-08-22T08:22:15.825Z,43.70
2022-08-22T08:24:44.800Z,41.94
2022-08-22T08:27:13.172Z,42.04
2022-08-22T08:29:39.565Z,40.58
2022-08-22T08:32:05.955Z,39.03
2022-08-22T08:34:32.417Z,39.29
2022-08-22T08:37:01.183Z,39.81
2022-08-22T08:39:28.584Z,39.47
2022-08-22T08:42:01.864Z,39.15
2022-08-22T08:44:28.292Z,40.06
2022-08-22T08:46:55.894Z,40.38
2022-08-22T08:49:23.946Z,41.61
2022-08-22T08:51:50.690Z,42.40
2022-08-22T08:54:17.080Z,44.55
2022-08-22T08:59:30.184Z,45.70
2022-08-22T09:01:57.078Z,45.96
2022-08-22T09:04:24.276Z,46.77
2022-08-22T09:06:53.841Z,47.21
2022-08-22T09:09:23.220Z,46.96
2022-08-22T09:11:49.618Z,47.44
2022-08-22T09:14:16.048Z,47.04
2022-08-22T09:16:45.029Z,47.43
2022-08-22T09:19:12.709Z,47.67
2022-08-22T09:21:39.083Z,47.64
2022-08-22T09:24:05.477Z,48.66
2022-08-22T09:26:31.892Z,49.00
2022-08-22T09:29:00.243Z,47.14
2022-08-22T09:31:32.981Z,46.80
2022-08-22T09:34:13.048Z,46.58
2022-08-22T09:36:42.883Z,47.60
2022-08-22T09:39:09.370Z,47.75
2022-08-22T09:40:15.240Z,44.84
2022-08-22T09:41:35.790Z,49.03
2022-08-22T09:44:02.168Z,49.03
2022-08-22T09:46:32.279Z,49.70
2022-08-22T09:49:05.435Z,48.77
2022-08-22T09:51:33.485Z,49.34
2022-08-22T09:53:59.940Z,48.09
2022-08-22T09:56:29.006Z,49.11
2022-08-22T09:58:56.919Z,48.31
2022-08-22T10:01:32.871Z,47.81
2022-08-22T10:04:00.786Z,48.61
2022-08-22T10:06:27.169Z,47.68
2022-08-22T10:08:53.592Z,48.05
2022-08-22T10:11:19.980Z,46.43
2022-08-22T10:13:46.387Z,46.57
2022-08-22T10:16:12.948Z,46.58
2022-08-22T10:18:42.150Z,46.74
2022-08-22T10:21:19.032Z,46.63
2022-08-22T10:23:47.189Z,47.59
2022-08-22T10:26:22.839Z,47.24
2022-08-22T10:28:52.159Z,47.13
2022-08-22T10:31:18.750Z,43.21
2022-08-22T10:33:46.519Z,40.91
2022-08-22T10:36:13.620Z,43.21
2022-08-22T10:38:46.136Z,40.37
2022-08-22T10:41:13.194Z,37.51
2022-08-22T10:43:41.985Z,37.82
2022-08-22T10:46:12.699Z,37.56
2022-08-22T10:48:40.287Z,36.08
2022-08-22T10:51:08.833Z,35.63
2022-08-22T10:53:36.319Z,35.03
2022-08-22T10:56:02.709Z,34.83
2022-08-22T10:58:29.245Z,34.11
2022-08-22T11:00:55.746Z,35.63
2022-08-22T11:03:23.453Z,35.10
2022-08-22T11:05:52.443Z,35.32
2022-08-22T11:08:19.023Z,33.69
2022-08-22T11:10:47.291Z,33.28
2022-08-22T11:13:13.825Z,33.52
2022-08-22T11:15:40.269Z,31.96
2022-08-22T11:18:06.951Z,32.16
2022-08-22T11:20:39.349Z,31.39
2022-08-22T11:23:07.294Z,31.30
2022-08-22T11:25:38.730Z,32.46
2022-08-22T11:28:05.615Z,31.70
2022-08-22T11:30:32.045Z,30.98
2022-08-22T11:33:04.709Z,29.84
2022-08-22T11:35:33.959Z,30.30
2022-08-22T11:38:03.098Z,28.74
2022-08-22T11:40:29.722Z,29.51
2022-08-22T11:42:56.178Z,27.56
2022-08-22T11:45:25.492Z,26.87
2022-08-22T11:47:53.738Z,26.99
2022-08-22T11:50:20.360Z,27.07
2022-08-22T11:52:51.925Z,26.48
2022-08-22T11:55:18.493Z,27.35
2022-08-22T11:57:45.090Z,27.63
2022-08-22T12:00:11.571Z,26.07
2022-08-22T12:02:38.191Z,27.89
2022-08-22T12:05:04.597Z,27.10
2022-08-22T12:07:32.124Z,25.97
2022-08-22T12:09:59.312Z,26.62
2022-08-22T12:12:25.731Z,25.82
2022-08-22T12:14:52.123Z,25.78
2022-08-22T12:17:28.547Z,26.29
2022-08-22T12:20:16.887Z,27.64
2022-08-22T12:22:45.868Z,25.21
2022-08-22T12:25:16.504Z,25.77
2022-08-22T12:27:48.270Z,24.81
2022-08-22T12:30:21.541Z,25.08
2022-08-22T12:32:48.970Z,23.88
2022-08-22T12:35:15.620Z,25.03
2022-08-22T12:37:52.235Z,25.89
2022-08-22T12:40:20.594Z,24.50
2022-08-22T12:42:53.495Z,24.21
2022-08-22T12:45:20.026Z,24.82
2022-08-22T12:47:49.628Z,24.03
2022-08-22T12:50:16.909Z,23.39
2022-08-22T12:52:44.290Z,23.62
2022-08-22T12:55:10.811Z,22.95
2022-08-22T12:57:37.533Z,22.63
2022-08-22T13:00:03.938Z,22.56
2022-08-22T13:02:30.649Z,23.51
2022-08-22T13:04:57.059Z,24.31
2022-08-22T13:07:23.456Z,22.99
2022-08-22T13:09:49.843Z,23.42
2022-08-22T13:12:20.083Z,22.00
2022-08-22T13:14:47.524Z,22.17
2022-08-22T13:17:25.003Z,21.93
2022-08-22T13:19:52.064Z,21.81
2022-08-22T13:22:18.486Z,21.23
2022-08-22T13:24:51.716Z,21.71
2022-08-22T13:27:20.333Z,21.18
2022-08-22T13:29:46.951Z,21.11
2022-08-22T13:32:15.642Z,23.95
2022-08-22T13:34:43.725Z,22.41
2022-08-22T13:37:10.284Z,23.59
2022-08-22T13:39:37.837Z,23.07
2022-08-22T13:42:04.327Z,22.24
2022-08-22T13:44:40.851Z,21.43
2022-08-22T13:47:14.320Z,21.85
2022-08-22T13:49:41.242Z,22.41
2022-08-22T13:52:14.427Z,22.77
2022-08-22T13:54:54.014Z,22.18
2022-08-22T13:57:20.398Z,21.56
2022-08-22T13:59:53.599Z,22.62
2022-08-22T14:02:21.285Z,21.54
2022-08-22T14:04:48.745Z,21.99
2022-08-22T14:07:15.119Z,21.23
2022-08-22T14:09:41.542Z,21.85
2022-08-22T14:12:07.928Z,23.53
2022-08-22T14:14:38.262Z,22.43
2022-08-22T14:17:04.664Z,21.96
2022-08-22T14:19:31.314Z,23.65
2022-08-22T14:22:04.740Z,22.76
2022-08-22T14:24:31.123Z,22.86
2022-08-22T14:26:57.941Z,22.13
2022-08-22T14:29:24.487Z,22.11
2022-08-22T14:31:50.945Z,21.55
2022-08-22T14:34:19.930Z,21.77
2022-08-22T14:36:49.413Z,21.72
2022-08-22T14:39:15.803Z,22.17
2022-08-22T14:41:56.010Z,21.59
2022-08-22T14:44:23.647Z,23.65
2022-08-22T14:46:51.209Z,23.59
2022-08-22T14:49:17.638Z,23.65
2022-08-22T14:51:44.284Z,22.65
2022-08-22T14:54:10.711Z,22.53
2022-08-22T14:56:40.591Z,22.50
2022-08-22T14:59:10.152Z,22.81
2022-08-22T15:01:41.249Z,23.36
2022-08-22T15:04:08.046Z,22.93
2022-08-22T15:06:34.449Z,23.71
2022-08-22T15:09:02.056Z,22.46
2022-08-22T15:11:34.497Z,22.83
2022-08-22T15:14:02.529Z,22.36
2022-08-22T15:16:31.256Z,21.80
2022-08-22T15:18:58.215Z,22.16
2022-08-22T15:21:24.814Z,21.95
2022-08-22T15:23:51.257Z,21.67
2022-08-22T15:26:17.699Z,20.98
2022-08-22T15:28:52.538Z,22.40
2022-08-22T15:31:19.649Z,20.90
2022-08-22T15:33:46.110Z,20.79
2022-08-22T15:36:12.687Z,19.96
2022-08-22T15:38:42.401Z,20.27
2022-08-22T15:41:14.483Z,20.00
2022-08-22T15:43:41.534Z,20.24
2022-08-22T15:48:52.463Z,19.93
2022-08-22T15:51:18.918Z,18.75
2022-08-22T15:53:48.157Z,19.39
2022-08-22T15:56:17.416Z,19.07
2022-08-22T15:58:48.768Z,18.20
2022-08-22T16:01:19.937Z,17.34
2022-08-22T16:03:47.065Z,17.92
2022-08-22T16:06:13.478Z,17.87
2022-08-22T16:08:39.859Z,17.43
2022-08-22T16:11:06.262Z,16.92
2022-08-22T16:13:32.639Z,18.01
2022-08-22T16:15:59.040Z,17.39
2022-08-22T16:18:25.443Z,17.34
2022-08-22T16:20:51.895Z,17.31
2022-08-22T16:23:18.302Z,17.65
2022-08-22T16:25:44.686Z,18.21
2022-08-22T16:28:11.062Z,17.82
2022-08-22T16:30:37.498Z,18.34
2022-08-22T16:33:04.980Z,17.88
2022-08-22T16:35:31.374Z,18.56
2022-08-22T16:37:57.823Z,18.46
2022-08-22T16:40:24.376Z,19.11
2022-08-22T16:42:50.790Z,19.70
2022-08-22T16:45:17.170Z,20.20
2022-08-22T16:47:43.561Z,20.74
2022-08-22T16:50:19.194Z,21.11
2022-08-22T16:52:48.709Z,20.88
2022-08-22T16:55:15.087Z,21.51
2022-08-22T16:57:54.406Z,21.35
2022-08-22T17:00:25.950Z,21.11
2022-08-22T17:02:52.392Z,21.75
2022-08-22T17:05:18.777Z,21.73
2022-08-22T17:07:45.150Z,22.69
2022-08-22T17:10:12.529Z,22.89
2022-08-22T17:12:39.083Z,23.14
2022-08-22T17:15:05.550Z,23.59
2022-08-22T17:17:31.942Z,23.02
2022-08-22T17:19:58.327Z,23.49
2022-08-22T17:22:28.477Z,23.03
2022-08-22T17:24:55.485Z,23.83
2022-08-22T17:27:21.883Z,24.43
2022-08-22T17:29:48.260Z,24.78
2022-08-22T17:32:14.662Z,24.58
2022-08-22T17:34:41.064Z,25.10
2022-08-22T17:37:07.468Z,25.03
2022-08-22T17:39:33.846Z,25.66
2022-08-22T17:42:00.223Z,25.24
2022-08-22T17:44:26.629Z,25.83
2022-08-22T17:46:53.005Z,26.48
2022-08-22T17:49:19.401Z,26.96
2022-08-22T17:51:45.771Z,26.62
2022-08-22T17:54:12.150Z,26.50
2022-08-22T17:56:38.526Z,27.61
2022-08-22T17:59:04.922Z,27.91
2022-08-22T18:01:31.343Z,28.06
2022-08-22T18:03:57.789Z,28.36
2022-08-22T18:06:24.173Z,29.16
2022-08-22T18:11:38.973Z,28.81
2022-08-22T18:14:06.735Z,28.79
2022-08-22T18:16:33.148Z,29.45
2022-08-22T18:18:59.578Z,30.08
2022-08-22T18:21:25.954Z,29.88
2022-08-22T18:23:52.330Z,29.46
2022-08-22T18:26:18.744Z,30.12
2022-08-22T18:28:45.194Z,30.15
2022-08-22T18:31:11.646Z,30.51
2022-08-22T18:33:38.059Z,30.43
2022-08-22T18:36:04.786Z,30.57
2022-08-22T18:38:31.279Z,30.65
2022-08-22T18:40:57.689Z,30.51
2022-08-22T18:43:24.202Z,30.74
2022-08-22T18:45:50.660Z,30.75
2022-08-22T18:48:17.045Z,30.70
2022-08-22T18:50:43.425Z,30.50
2022-08-22T18:53:09.851Z,30.46
2022-08-22T18:55:38.082Z,30.37
2022-08-22T18:58:04.472Z,30.42
2022-08-22T19:00:30.859Z,30.59
2022-08-22T19:02:57.329Z,30.65
2022-08-22T19:05:23.766Z,30.10
2022-08-22T19:07:50.157Z,30.21
2022-08-22T19:10:16.609Z,30.44
2022-08-22T19:12:43.010Z,30.17
2022-08-22T19:15:09.421Z,30.22
2022-08-22T19:17:35.810Z,30.79
2022-08-22T19:20:02.222Z,30.55
2022-08-22T19:22:28.643Z,30.95
2022-08-22T19:24:55.051Z,31.39
2022-08-22T19:27:21.461Z,30.99
2022-08-22T19:29:47.842Z,30.93
2022-08-22T19:32:14.265Z,30.87
2022-08-22T19:34:40.652Z,30.79
2022-08-22T19:37:07.045Z,30.87
2022-08-22T19:39:36.001Z,31.01
2022-08-22T19:42:02.430Z,30.85
2022-08-22T19:44:28.811Z,31.13
2022-08-22T19:46:55.225Z,30.81
2022-08-22T19:49:21.708Z,30.65
2022-08-22T19:51:48.111Z,29.97
2022-08-22T19:54:16.670Z,30.65
2022-08-22T19:56:43.369Z,29.84
2022-08-22T19:59:09.798Z,29.85
2022-08-22T20:01:36.267Z,30.13
2022-08-22T20:04:02.696Z,30.03
2022-08-22T20:06:43.569Z,29.76
2022-08-22T20:09:10.638Z,30.18
2022-08-22T20:11:37.016Z,30.61
2022-08-22T20:14:03.404Z,30.61
2022-08-22T20:16:29.798Z,34.75
2022-08-22T20:19:06.627Z,34.10
2022-08-22T20:21:38.697Z,32.88
2022-08-22T20:24:05.628Z,32.99
2022-08-22T20:26:32.051Z,32.89
2022-08-22T20:28:58.422Z,31.69
2022-08-22T20:31:25.923Z,32.38
2022-08-22T20:33:52.303Z,32.22
2022-08-22T20:36:28.535Z,31.67
2022-08-22T20:38:56.152Z,31.24
2022-08-22T20:41:22.751Z,29.88
2022-08-22T20:43:49.210Z,29.92
2022-08-22T20:46:15.831Z,30.92
2022-08-22T20:48:42.212Z,31.67
2022-08-22T20:51:08.591Z,30.05
2022-08-22T20:53:34.991Z,29.75
2022-08-22T20:56:01.410Z,29.76
2022-08-22T20:58:27.810Z,29.65
2022-08-22T21:00:56.093Z,29.39
2022-08-22T21:03:22.594Z,29.70
2022-08-22T21:05:48.978Z,30.88
2022-08-22T21:08:15.375Z,30.13
2022-08-22T21:10:41.760Z,30.25
2022-08-22T21:13:08.157Z,29.69
2022-08-22T21:15:34.543Z,31.10
2022-08-22T21:18:01.088Z,29.68
2022-08-22T21:20:27.663Z,30.87
2022-08-22T21:22:54.044Z,30.34
2022-08-22T21:25:20.449Z,29.94
2022-08-22T21:27:46.827Z,31.90
2022-08-22T21:30:13.256Z,29.97
2022-08-22T21:32:39.663Z,31.70
2022-08-22T21:35:06.071Z,30.72
2022-08-22T21:37:32.471Z,30.42
2022-08-22T21:39:58.925Z,30.67
2022-08-22T21:42:25.320Z,30.11
2022-08-22T21:44:51.735Z,31.21
2022-08-22T21:47:19.179Z,31.74
2022-08-22T21:49:57.751Z,30.78
2022-08-22T21:52:24.145Z,32.24
2022-08-22T21:54:50.557Z,30.50
2022-08-22T21:57:16.958Z,31.20
2022-08-22T21:59:51.992Z,31.44
2022-08-22T22:02:25.578Z,31.18
2022-08-22T22:04:53.825Z,31.36
2022-08-22T22:07:20.240Z,31.87
2022-08-22T22:09:47.205Z,31.35
2022-08-22T22:12:21.413Z,31.26
2022-08-22T22:14:47.810Z,31.76
2022-08-22T22:17:14.196Z,31.88
2022-08-22T22:19:40.584Z,32.11
2022-08-22T22:22:08.316Z,31.80
2022-08-22T22:24:34.704Z,32.05
2022-08-22T22:27:01.122Z,32.20
2022-08-22T22:29:27.525Z,31.84
2022-08-22T22:31:53.921Z,31.92
2022-08-22T22:34:20.331Z,31.47
2022-08-22T22:36:46.736Z,32.52
2022-08-22T22:39:13.111Z,32.36
2022-08-22T22:41:39.526Z,32.53
2022-08-22T22:44:05.909Z,32.29
2022-08-22T22:46:32.313Z,32.85
2022-08-22T22:48:58.701Z,32.67
2022-08-22T22:51:25.087Z,32.95
2022-08-22T22:53:51.496Z,32.82
2022-08-22T22:56:17.984Z,32.93
2022-08-22T22:58:50.009Z,32.98
2022-08-22T23:01:16.482Z,33.17
2022-08-22T23:03:42.931Z,33.38
2022-08-22T23:06:09.354Z,33.67
2022-08-22T23:08:35.768Z,33.50
2022-08-22T23:11:02.169Z,34.30
2022-08-22T23:13:28.538Z,33.87
2022-08-22T23:15:54.931Z,33.58
2022-08-22T23:18:21.315Z,33.12
2022-08-22T23:20:56.811Z,34.04
2022-08-22T23:23:23.207Z,33.70
2022-08-22T23:25:49.601Z,34.23
2022-08-22T23:28:16.032Z,35.04
2022-08-22T23:30:42.460Z,34.30
2022-08-22T23:33:08.859Z,34.19
2022-08-22T23:35:35.284Z,34.85
2022-08-22T23:38:01.819Z,34.98
2022-08-22T23:40:28.333Z,34.99
2022-08-22T23:42:54.798Z,35.55
2022-08-22T23:45:22.602Z,35.02
2022-08-22T23:47:48.995Z,35.26
2022-08-22T23:50:15.412Z,35.76
2022-08-22T23:52:41.805Z,35.78
2022-08-22T23:55:08.171Z,35.86
2022-08-22T23:57:34.547Z,36.23
